1IL0 weather

Barnstorm Field
El Paso, Illinois, United States

Public forecast

Using degrees Fahrenheit for public forecast. Weather courtesy of forecast.io.

METAR (pilot weather report)

Closest report is Central Illinois Regional Airport at Bloomington-Normal, 18.3 nm (33.9 km) SSE. Retrieved 2019/06/20 20:56 UTC (12 minutes ago):

KBMI 202056Z 36008KT 10SM BKN036 23/16 A2980 RMK AO2 SLP086 T02330161 53006

TAF (pilot weather forecast)

Closest forecast is Central Illinois Regional Airport at Bloomington-Normal, 18.3 nm (33.9 km) SSE. Retrieved 2019/06/20 18:42 UTC (2 hours ago):

TAF KBMI 201740Z 2018/2118 31012G20KT P6SM OVC015 FM202000 33010G18KT P6SM SCT015 BKN025 FM202200 34008KT P6SM SCT025 FM211200 12006KT P6SM BKN070